Time;durP1;ratioP1;P1;durP2;ratioP2;P2;SDS_P1;SDS_P2;PMS_P1;PMS_P2;Temp;Humidity;BMP_temperature;BMP_pressure;BME280_temperature;BME280_humidity;BME280_pressure;Samples;Min_cycle;Max_cycle;Signal;HPM_P1;HPM_P2
2023/07/24 00:01:12;;;;;;;15.88;6.93;;;17.20;99.90;;;;;;5031137;28;20141;-66
2023/07/24 00:03:38;;;;;;;15.65;7.47;;;17.10;99.90;;;;;;5045872;28;20404;-65
2023/07/24 00:06:03;;;;;;;13.15;7.20;;;17.10;99.90;;;;;;5028435;28;20036;-67
2023/07/24 00:08:29;;;;;;;16.33;7.35;;;17.10;99.90;;;;;;5027914;28;20532;-66
2023/07/24 00:10:54;;;;;;;15.57;7.55;;;17.10;99.90;;;;;;5044309;28;20095;-63
2023/07/24 00:13:20;;;;;;;17.05;7.30;;;17.10;99.90;;;;;;5042473;28;20427;-67
2023/07/24 00:15:46;;;;;;;14.63;7.22;;;17.10;99.90;;;;;;5027166;28;20116;-67
2023/07/24 00:18:11;;;;;;;14.35;7.15;;;17.10;99.90;;;;;;5045801;28;20044;-67
2023/07/24 00:20:37;;;;;;;15.45;7.38;;;17.10;99.90;;;;;;5027387;28;20089;-68
2023/07/24 00:23:02;;;;;;;14.15;7.22;;;17.00;99.90;;;;;;5032283;28;20078;-67
2023/07/24 00:25:28;;;;;;;17.65;7.75;;;17.00;99.90;;;;;;5047465;28;20044;-67
2023/07/24 00:27:54;;;;;;;15.65;7.88;;;17.00;99.90;;;;;;5046181;28;20049;-66
2023/07/24 00:30:19;;;;;;;15.35;7.22;;;17.00;99.90;;;;;;5046749;28;20442;-68
2023/07/24 00:32:45;;;;;;;14.57;7.70;;;17.00;99.90;;;;;;5047479;28;20066;-67
2023/07/24 00:35:10;;;;;;;16.50;7.63;;;17.00;99.90;;;;;;5046462;28;20471;-67
2023/07/24 00:37:36;;;;;;;15.88;7.40;;;17.00;99.90;;;;;;5042538;28;20044;-66
2023/07/24 00:40:02;;;;;;;13.20;7.82;;;17.00;99.90;;;;;;5046175;28;20036;-67
2023/07/24 00:42:28;;;;;;;14.63;7.68;;;16.90;99.90;;;;;;5062985;28;20040;-67
2023/07/24 00:44:54;;;;;;;14.13;7.53;;;16.90;99.90;;;;;;5041149;28;20086;-67
2023/07/24 00:47:19;;;;;;;12.77;7.28;;;16.90;99.90;;;;;;5045334;28;20431;-70
2023/07/24 00:49:46;;;;;;;17.42;7.90;;;16.90;99.90;;;;;;5042406;28;20507;-69
2023/07/24 00:52:13;;;;;;;15.68;7.82;;;16.90;99.90;;;;;;5026686;28;20052;-67
2023/07/24 00:54:39;;;;;;;19.40;7.95;;;16.90;99.90;;;;;;5026504;28;20045;-65
2023/07/24 00:57:05;;;;;;;15.77;7.57;;;16.90;99.90;;;;;;5026690;28;20507;-69
2023/07/24 00:59:32;;;;;;;14.50;8.02;;;16.80;99.90;;;;;;5028440;28;20041;-68
2023/07/24 01:01:58;;;;;;;14.70;8.23;;;16.80;99.90;;;;;;5046366;28;20063;-67
2023/07/24 01:04:23;;;;;;;15.43;8.00;;;16.80;99.90;;;;;;5046746;28;20044;-66
2023/07/24 01:06:49;;;;;;;15.63;7.85;;;16.80;99.90;;;;;;5064638;28;20063;-68
2023/07/24 01:09:15;;;;;;;17.08;8.80;;;16.80;99.90;;;;;;5045764;28;20494;-66
2023/07/24 01:11:51;;;;;;;14.88;8.80;;;16.80;99.90;;;;;;5046202;28;20044;-62
2023/07/24 01:14:32;;;;;;;15.45;8.60;;;16.70;99.90;;;;;;5039690;28;20032;-69
2023/07/24 01:16:59;;;;;;;16.92;9.82;;;16.70;99.90;;;;;;5046492;28;20037;-67
2023/07/24 01:19:40;;;;;;;18.00;8.88;;;16.70;99.90;;;;;;5053214;28;20052;-68
2023/07/24 01:22:29;;;;;;;15.10;9.43;;;16.70;99.90;;;;;;5063258;28;20048;-67
2023/07/24 01:25:13;;;;;;;18.10;9.48;;;16.70;99.90;;;;;;5037205;28;20045;-66
2023/07/24 01:27:42;;;;;;;;;;;16.70;99.90;;;;;;5045653;28;20051;-66
2023/07/24 01:30:08;;;;;;;17.55;9.65;;;16.70;99.90;;;;;;5029058;28;20420;-66
2023/07/24 01:32:34;;;;;;;18.23;10.45;;;16.70;99.90;;;;;;5046453;28;20041;-66
2023/07/24 01:35:00;;;;;;;16.88;10.00;;;16.70;99.90;;;;;;5045492;28;20442;-67
2023/07/24 01:37:26;;;;;;;19.52;11.80;;;16.70;99.90;;;;;;5044516;28;20040;-66
2023/07/24 01:39:55;;;;;;;17.05;10.85;;;16.70;99.90;;;;;;5025708;28;20037;-67
2023/07/24 01:42:20;;;;;;;20.65;12.20;;;16.70;99.90;;;;;;5027922;28;20040;-65
2023/07/24 01:44:54;;;;;;;17.40;11.25;;;16.70;99.90;;;;;;5045311;28;20037;-67
2023/07/24 01:47:20;;;;;;;18.63;11.88;;;16.60;99.90;;;;;;5046649;28;20037;-65
2023/07/24 01:49:46;;;;;;;19.55;12.45;;;16.60;99.90;;;;;;5037400;28;20037;-70
2023/07/24 01:52:11;;;;;;;19.38;13.13;;;16.60;99.90;;;;;;5026146;28;20094;-66
2023/07/24 01:54:37;;;;;;;21.23;14.02;;;16.70;99.90;;;;;;5028916;28;20041;-66
2023/07/24 01:57:03;;;;;;;19.58;13.50;;;16.60;99.90;;;;;;5045174;28;20037;-64
2023/07/24 01:59:28;;;;;;;19.90;13.50;;;16.70;99.90;;;;;;5062260;28;20059;-66
2023/07/24 02:01:54;;;;;;;19.58;12.95;;;16.70;99.90;;;;;;5029530;28;20048;-67
2023/07/24 02:04:22;;;;;;;19.63;12.57;;;16.70;99.90;;;;;;5045276;28;20468;-66
2023/07/24 02:06:48;;;;;;;19.98;13.05;;;16.70;99.90;;;;;;5045695;28;20688;-63
2023/07/24 02:09:14;;;;;;;20.83;12.73;;;16.80;99.90;;;;;;5063447;28;20040;-67
2023/07/24 02:11:40;;;;;;;17.88;12.23;;;16.70;99.90;;;;;;5063978;28;20380;-66
2023/07/24 02:14:06;;;;;;;17.25;12.27;;;16.80;99.90;;;;;;5066964;28;20033;-65
2023/07/24 02:16:31;;;;;;;17.98;11.77;;;16.70;99.90;;;;;;5039522;28;20507;-67
2023/07/24 02:18:57;;;;;;;17.75;12.38;;;16.80;99.90;;;;;;5030758;28;20106;-67
2023/07/24 02:21:23;;;;;;;16.60;11.13;;;16.80;99.90;;;;;;5049924;28;20120;-66
2023/07/24 02:23:48;;;;;;;16.90;11.85;;;16.80;99.90;;;;;;5049630;28;20044;-65
2023/07/24 02:26:14;;;;;;;15.70;11.20;;;16.80;99.90;;;;;;5048014;28;20045;-66
2023/07/24 02:28:39;;;;;;;17.52;12.25;;;16.80;99.90;;;;;;5048246;28;20585;-68
2023/07/24 02:31:05;;;;;;;18.42;11.63;;;16.80;99.90;;;;;;5049007;28;20099;-66
2023/07/24 02:33:30;;;;;;;16.17;10.80;;;16.80;99.90;;;;;;5048943;28;20063;-70
2023/07/24 02:35:56;;;;;;;18.30;11.82;;;16.80;99.90;;;;;;5048608;28;20032;-68
2023/07/24 02:38:21;;;;;;;16.73;11.50;;;16.80;99.90;;;;;;5049340;28;20127;-68
2023/07/24 02:40:47;;;;;;;17.70;10.95;;;16.80;99.90;;;;;;5066575;28;20051;-69
2023/07/24 02:43:13;;;;;;;19.98;10.85;;;16.80;99.90;;;;;;5046192;28;20040;-66
2023/07/24 02:45:38;;;;;;;18.70;11.52;;;16.80;99.90;;;;;;5048990;28;20044;-66
2023/07/24 02:48:05;;;;;;;16.15;10.70;;;16.70;99.90;;;;;;5049353;28;20480;-68
2023/07/24 02:50:30;;;;;;;18.40;10.98;;;16.70;99.90;;;;;;5047991;28;20083;-68
2023/07/24 02:52:56;;;;;;;17.92;10.50;;;16.70;99.90;;;;;;5067036;28;20451;-63
2023/07/24 02:55:21;;;;;;;18.40;10.02;;;16.70;99.90;;;;;;5066745;28;20032;-67
2023/07/24 02:57:47;;;;;;;19.55;10.30;;;16.70;99.90;;;;;;5047789;28;20178;-66
2023/07/24 03:00:13;;;;;;;17.15;10.07;;;16.70;99.90;;;;;;5064435;28;20107;-66
2023/07/24 03:02:39;;;;;;;15.65;10.00;;;16.70;99.90;;;;;;5067301;28;20048;-66
2023/07/24 03:05:05;;;;;;;16.98;10.38;;;16.70;99.90;;;;;;5035470;28;20105;-66
2023/07/24 03:07:31;;;;;;;17.00;10.27;;;16.70;99.90;;;;;;5029219;28;20442;-66
2023/07/24 03:09:57;;;;;;;15.43;10.05;;;16.70;99.90;;;;;;5028381;28;20534;-65
2023/07/24 03:12:23;;;;;;;17.33;10.13;;;16.70;99.90;;;;;;5027478;28;20049;-65
2023/07/24 03:14:48;;;;;;;17.85;10.55;;;16.60;99.90;;;;;;5029612;28;20455;-67
2023/07/24 03:17:14;;;;;;;17.65;10.10;;;16.60;99.90;;;;;;5046972;28;20078;-67
2023/07/24 03:19:41;;;;;;;15.65;11.07;;;16.70;99.90;;;;;;5046890;28;20273;-67
2023/07/24 03:22:06;;;;;;;17.73;10.90;;;16.60;99.90;;;;;;5046729;28;20032;-65
2023/07/24 03:24:33;;;;;;;17.10;11.02;;;16.60;99.90;;;;;;5027016;28;20454;-66
2023/07/24 03:27:00;;;;;;;15.82;10.95;;;16.60;99.90;;;;;;5028608;28;20053;-66
2023/07/24 03:29:25;;;;;;;17.23;10.20;;;16.60;99.90;;;;;;5039074;28;20415;-67
2023/07/24 03:31:51;;;;;;;17.20;11.60;;;16.60;99.90;;;;;;5048227;28;20048;-67
2023/07/24 03:34:17;;;;;;;18.55;11.13;;;16.60;99.90;;;;;;5063337;28;20097;-67
2023/07/24 03:36:42;;;;;;;17.02;11.13;;;16.60;99.90;;;;;;5047988;28;20675;-68
2023/07/24 03:39:10;;;;;;;17.17;11.63;;;16.60;99.90;;;;;;5065929;28;20040;-69
2023/07/24 03:41:35;;;;;;;17.08;11.85;;;16.60;99.90;;;;;;5029034;28;20480;-66
2023/07/24 03:44:01;;;;;;;18.55;11.63;;;16.60;99.90;;;;;;5027344;28;20170;-67
2023/07/24 03:46:27;;;;;;;15.85;11.10;;;16.60;99.90;;;;;;5046617;28;20143;-70
2023/07/24 03:48:52;;;;;;;20.17;12.18;;;16.50;99.90;;;;;;5030157;28;20456;-67
2023/07/24 03:51:18;;;;;;;19.08;12.30;;;16.50;99.90;;;;;;5065690;28;20041;-67
2023/07/24 03:53:44;;;;;;;18.13;11.90;;;16.60;99.90;;;;;;5048082;28;20036;-66
2023/07/24 03:56:09;;;;;;;18.17;11.63;;;16.60;99.90;;;;;;5030083;28;20105;-69
2023/07/24 03:58:35;;;;;;;14.68;11.10;;;16.60;99.90;;;;;;5064977;28;20047;-66
2023/07/24 04:01:01;;;;;;;19.42;12.32;;;16.60;99.90;;;;;;5051472;28;20270;-67
2023/07/24 04:03:26;;;;;;;18.85;13.07;;;16.50;99.90;;;;;;5027608;28;20049;-68
2023/07/24 04:05:52;;;;;;;19.50;12.05;;;16.50;99.90;;;;;;5047416;28;20843;-66
2023/07/24 04:08:17;;;;;;;16.60;11.52;;;16.50;99.90;;;;;;5047397;28;20178;-68
2023/07/24 04:10:45;;;;;;;17.73;12.65;;;16.50;99.90;;;;;;5042830;28;20131;-68
2023/07/24 04:13:11;;;;;;;19.35;12.20;;;16.50;99.90;;;;;;5045972;28;20041;-67
2023/07/24 04:15:38;;;;;;;18.35;12.38;;;16.50;99.90;;;;;;5046385;28;20109;-68
2023/07/24 04:18:03;;;;;;;16.50;11.60;;;16.50;99.90;;;;;;5028152;28;20557;-65
2023/07/24 04:20:29;;;;;;;17.63;11.88;;;16.50;99.90;;;;;;5057702;28;20040;-66
2023/07/24 04:22:54;;;;;;;18.35;12.32;;;16.50;99.90;;;;;;5047123;28;20052;-68
2023/07/24 04:25:20;;;;;;;15.57;11.60;;;16.60;99.90;;;;;;5047438;28;20080;-67
2023/07/24 04:27:46;;;;;;;16.35;11.38;;;16.50;99.90;;;;;;5045970;28;20124;-67
2023/07/24 04:30:11;;;;;;;16.02;11.70;;;16.60;99.90;;;;;;5046277;28;20419;-67
2023/07/24 04:32:37;;;;;;;15.35;11.27;;;16.60;99.90;;;;;;5064968;28;20503;-66
2023/07/24 04:35:03;;;;;;;14.60;11.07;;;16.60;99.90;;;;;;5053835;28;20484;-66
2023/07/24 04:37:29;;;;;;;17.45;10.95;;;16.60;99.90;;;;;;5045174;28;20037;-67
2023/07/24 04:39:55;;;;;;;18.45;11.70;;;16.60;99.90;;;;;;5044543;28;20033;-66
2023/07/24 04:42:20;;;;;;;16.58;11.30;;;16.60;99.90;;;;;;5028886;28;20055;-67
2023/07/24 04:44:46;;;;;;;16.58;11.52;;;16.60;99.90;;;;;;5046743;28;20031;-67
2023/07/24 04:47:11;;;;;;;17.40;11.77;;;16.60;99.90;;;;;;5047013;28;20036;-66
2023/07/24 04:49:37;;;;;;;16.38;11.75;;;16.60;99.90;;;;;;5064137;28;20879;-66
2023/07/24 04:52:03;;;;;;;16.20;11.27;;;16.60;99.90;;;;;;5046690;28;20643;-65
2023/07/24 04:54:29;;;;;;;17.73;11.98;;;16.60;99.90;;;;;;5046660;28;20132;-66
2023/07/24 04:56:55;;;;;;;14.48;10.43;;;16.60;99.90;;;;;;5028346;28;20135;-66
2023/07/24 04:59:20;;;;;;;15.55;11.02;;;16.60;99.90;;;;;;5028850;28;20048;-66
2023/07/24 05:01:46;;;;;;;16.17;11.80;;;16.60;99.90;;;;;;5030039;28;20419;-66
2023/07/24 05:04:12;;;;;;;16.77;10.93;;;16.70;99.90;;;;;;5045743;28;20071;-66
2023/07/24 05:06:38;;;;;;;16.98;11.13;;;16.60;99.90;;;;;;5064769;28;20749;-67
2023/07/24 05:09:04;;;;;;;16.45;11.20;;;16.70;99.90;;;;;;5045917;28;20044;-66
2023/07/24 05:11:29;;;;;;;16.48;11.30;;;16.70;99.90;;;;;;5064312;28;20055;-67
2023/07/24 05:13:55;;;;;;;14.85;11.23;;;16.70;99.90;;;;;;5045336;28;20491;-65
2023/07/24 05:16:21;;;;;;;16.50;11.15;;;16.70;99.90;;;;;;5037997;28;20072;-66
2023/07/24 05:18:46;;;;;;;19.45;11.30;;;16.70;99.90;;;;;;5026975;28;20052;-66
2023/07/24 05:21:12;;;;;;;13.40;10.23;;;16.70;99.90;;;;;;5026910;28;20537;-66
2023/07/24 05:23:37;;;;;;;16.38;11.40;;;16.70;99.90;;;;;;5026582;28;20411;-65
2023/07/24 05:26:03;;;;;;;18.25;10.93;;;16.70;99.90;;;;;;5036345;28;20127;-66
2023/07/24 05:28:30;;;;;;;19.10;10.68;;;16.80;99.90;;;;;;5045213;28;20076;-66
2023/07/24 05:30:59;;;;;;;15.90;10.80;;;16.70;99.90;;;;;;5045446;28;20055;-66
2023/07/24 05:33:25;;;;;;;20.67;11.52;;;16.80;99.90;;;;;;5046559;28;20048;-66
2023/07/24 05:35:51;;;;;;;15.23;10.68;;;16.80;99.90;;;;;;5045271;28;20406;-67
2023/07/24 05:38:16;;;;;;;16.77;10.73;;;16.80;99.90;;;;;;5064172;28;20067;-69
2023/07/24 05:40:42;;;;;;;13.40;10.05;;;16.80;99.90;;;;;;5045048;28;20044;-65
2023/07/24 05:43:07;;;;;;;17.15;10.18;;;16.80;99.90;;;;;;5040700;28;20072;-67
2023/07/24 05:45:33;;;;;;;15.90;10.88;;;16.90;99.90;;;;;;5050373;28;20045;-67
2023/07/24 05:47:58;;;;;;;18.13;10.88;;;16.90;99.90;;;;;;5062549;28;20051;-66
2023/07/24 05:50:24;;;;;;;18.55;11.07;;;17.00;99.90;;;;;;5067062;28;20062;-68
2023/07/24 05:52:50;;;;;;;15.38;10.13;;;16.90;99.90;;;;;;5049100;28;20124;-68
2023/07/24 05:55:15;;;;;;;16.23;10.98;;;17.00;99.90;;;;;;5049309;28;20698;-71
2023/07/24 05:57:41;;;;;;;17.02;11.02;;;17.00;99.90;;;;;;5066917;28;20120;-66
2023/07/24 06:00:07;;;;;;;14.80;10.52;;;17.00;99.90;;;;;;5048773;28;20044;-67
2023/07/24 06:02:33;;;;;;;19.23;11.00;;;17.10;99.90;;;;;;5067977;28;20056;-67
2023/07/24 06:04:58;;;;;;;17.90;11.60;;;17.10;99.90;;;;;;5067158;28;20052;-68
2023/07/24 06:07:24;;;;;;;16.13;10.10;;;17.10;99.90;;;;;;5049998;28;20050;-68
2023/07/24 06:09:50;;;;;;;15.40;10.80;;;17.10;99.90;;;;;;5067529;28;20086;-69
2023/07/24 06:12:15;;;;;;;17.27;10.80;;;17.10;99.90;;;;;;5048924;28;20098;-68
2023/07/24 06:14:41;;;;;;;14.30;10.88;;;17.10;99.90;;;;;;5062157;28;20036;-67
2023/07/24 06:17:06;;;;;;;15.52;10.95;;;17.10;99.90;;;;;;5049112;28;20028;-66
2023/07/24 06:19:32;;;;;;;19.08;10.82;;;17.10;99.90;;;;;;5065869;28;20044;-66
2023/07/24 06:21:58;;;;;;;20.63;12.30;;;17.10;99.90;;;;;;5049325;28;20043;-67
2023/07/24 06:24:23;;;;;;;17.92;11.20;;;17.20;99.90;;;;;;5049294;28;20050;-66
2023/07/24 06:26:49;;;;;;;18.52;11.20;;;17.20;99.90;;;;;;5048482;28;20071;-64
2023/07/24 06:29:15;;;;;;;17.42;11.05;;;17.20;99.90;;;;;;5066177;28;20040;-65
2023/07/24 06:31:41;;;;;;;15.43;10.95;;;17.20;99.90;;;;;;5043485;28;20103;-70
2023/07/24 06:34:07;;;;;;;19.73;10.93;;;17.30;99.90;;;;;;5048437;28;20045;-68
2023/07/24 06:36:32;;;;;;;15.20;10.60;;;17.30;99.90;;;;;;5032298;28;20918;-67
2023/07/24 06:38:58;;;;;;;18.25;11.32;;;17.30;99.90;;;;;;5049109;28;20051;-66
2023/07/24 06:41:24;;;;;;;19.63;10.85;;;17.30;99.90;;;;;;5048213;28;20636;-66
2023/07/24 06:43:51;;;;;;;14.90;10.27;;;17.40;99.90;;;;;;5045773;28;20115;-65
2023/07/24 06:46:16;;;;;;;15.38;10.48;;;17.40;99.90;;;;;;5045501;28;20048;-68
2023/07/24 06:48:42;;;;;;;14.75;10.00;;;17.40;99.90;;;;;;5047968;28;20047;-66
2023/07/24 06:51:08;;;;;;;16.98;9.75;;;17.50;99.90;;;;;;5032144;28;20665;-70
2023/07/24 06:53:33;;;;;;;14.70;10.65;;;17.50;99.90;;;;;;5049317;28;20535;-66
2023/07/24 06:55:59;;;;;;;17.65;10.15;;;17.60;99.90;;;;;;5031651;28;20044;-67
2023/07/24 06:58:24;;;;;;;16.98;9.60;;;17.60;99.90;;;;;;5065568;28;20037;-67
2023/07/24 07:00:50;;;;;;;14.93;9.13;;;17.60;99.90;;;;;;5054436;28;20155;-66
2023/07/24 07:03:16;;;;;;;18.25;10.02;;;17.70;99.90;;;;;;5043561;28;20037;-68
2023/07/24 07:05:41;;;;;;;21.50;9.82;;;17.70;99.90;;;;;;5047462;28;20028;-67
2023/07/24 07:08:08;;;;;;;19.88;10.18;;;17.70;99.90;;;;;;5061245;28;20059;-64
2023/07/24 07:10:34;;;;;;;21.45;10.07;;;17.80;99.90;;;;;;5047248;28;20044;-67
2023/07/24 07:12:59;;;;;;;15.90;10.40;;;17.80;99.90;;;;;;5064761;28;20036;-68
2023/07/24 07:15:25;;;;;;;18.80;10.25;;;17.80;99.90;;;;;;5065799;28;20114;-66
2023/07/24 07:17:51;;;;;;;19.20;9.73;;;17.80;99.90;;;;;;5030583;28;20079;-66
2023/07/24 07:20:16;;;;;;;19.20;10.75;;;17.90;99.90;;;;;;5047147;28;20102;-67
2023/07/24 07:22:42;;;;;;;16.50;10.73;;;17.90;99.90;;;;;;5061406;28;20102;-68
2023/07/24 07:25:08;;;;;;;16.05;9.40;;;17.90;99.90;;;;;;5063869;28;20743;-68
2023/07/24 07:27:33;;;;;;;16.73;9.98;;;18.00;99.90;;;;;;5046676;28;20040;-68
2023/07/24 07:29:59;;;;;;;20.45;10.85;;;18.00;99.90;;;;;;5046852;28;20032;-71
2023/07/24 07:32:24;;;;;;;17.13;10.65;;;18.00;99.90;;;;;;5048104;28;20048;-68
2023/07/24 07:34:50;;;;;;;16.88;10.15;;;18.10;99.90;;;;;;5064523;28;20051;-68
2023/07/24 07:37:16;;;;;;;15.75;10.43;;;18.10;99.90;;;;;;5048084;28;20048;-65
2023/07/24 07:39:41;;;;;;;19.27;11.10;;;18.10;99.90;;;;;;5031171;28;20127;-69
2023/07/24 07:42:07;;;;;;;20.20;10.93;;;18.10;99.90;;;;;;5031583;28;20044;-71
2023/07/24 07:44:33;;;;;;;16.50;10.75;;;18.10;99.90;;;;;;5013410;28;20492;-66
2023/07/24 07:46:58;;;;;;;14.88;10.35;;;18.10;99.90;;;;;;5048243;28;20052;-65
2023/07/24 07:49:24;;;;;;;21.40;11.48;;;18.20;99.90;;;;;;5064494;28;20033;-65
2023/07/24 07:51:50;;;;;;;20.80;10.85;;;18.20;99.90;;;;;;5047612;28;20637;-69
2023/07/24 07:54:15;;;;;;;21.33;10.80;;;18.20;99.90;;;;;;5047648;28;20624;-68
2023/07/24 07:56:42;;;;;;;19.08;10.85;;;18.30;99.90;;;;;;5064796;28;20036;-67
2023/07/24 07:59:07;;;;;;;22.67;11.55;;;18.30;99.90;;;;;;5046275;28;20214;-70
2023/07/24 08:01:33;;;;;;;22.08;11.40;;;18.40;99.90;;;;;;5057687;28;20123;-67
2023/07/24 08:03:59;;;;;;;18.73;12.02;;;18.40;99.90;;;;;;5064975;28;20099;-69
2023/07/24 08:06:24;;;;;;;18.33;11.45;;;18.40;99.90;;;;;;5061857;28;20053;-66
2023/07/24 08:08:50;;;;;;;20.67;10.63;;;18.40;99.90;;;;;;5062636;28;20040;-67
2023/07/24 08:11:16;;;;;;;19.45;10.43;;;18.40;99.90;;;;;;5028879;28;20036;-72
2023/07/24 08:13:41;;;;;;;20.98;10.70;;;18.40;99.90;;;;;;5046324;28;20090;-65
2023/07/24 08:16:20;;;;;;;18.35;10.48;;;18.40;99.90;;;;;;5029907;28;20565;-71
2023/07/24 08:18:47;;;;;;;16.27;9.82;;;18.40;99.90;;;;;;5064594;28;20040;-67
2023/07/24 08:21:14;;;;;;;16.13;9.63;;;18.40;99.90;;;;;;5047204;28;20090;-67
2023/07/24 08:23:40;;;;;;;17.90;9.82;;;18.40;99.90;;;;;;5047442;28;20044;-70
2023/07/24 08:26:07;;;;;;;19.10;10.70;;;18.50;99.90;;;;;;5029871;28;20135;-69
2023/07/24 08:28:34;;;;;;;20.95;10.18;;;18.50;99.90;;;;;;5028638;28;20040;-68
2023/07/24 08:31:01;;;;;;;17.67;9.55;;;18.50;99.90;;;;;;5059019;28;20036;-68
2023/07/24 08:33:28;;;;;;;16.33;9.60;;;18.50;99.90;;;;;;5046883;28;20052;-69
2023/07/24 08:36:02;;;;;;;15.30;8.82;;;18.60;99.90;;;;;;5029999;28;20044;-69
2023/07/24 08:38:27;;;;;;;;;;;18.60;99.90;;;;;;5047289;28;20445;-68
2023/07/24 08:41:04;;;;;;;18.15;9.10;;;18.60;99.90;;;;;;5029154;28;19924;-68
2023/07/24 08:43:31;;;;;;;20.98;10.05;;;18.70;99.90;;;;;;5065077;28;20443;-68
2023/07/24 08:45:59;;;;;;;21.80;10.75;;;18.80;99.90;;;;;;5064961;28;20071;-68
2023/07/24 08:48:29;;;;;;;20.77;10.20;;;18.80;99.90;;;;;;5046268;28;20048;-66
2023/07/24 08:50:59;;;;;;;16.27;9.55;;;18.90;99.90;;;;;;5031920;28;20086;-68
2023/07/24 08:53:25;;;;;;;18.65;10.43;;;18.90;99.90;;;;;;5027369;28;20048;-69
2023/07/24 08:55:52;;;;;;;19.63;10.68;;;18.90;99.90;;;;;;5026959;28;20071;-68
2023/07/24 08:58:18;;;;;;;18.67;11.00;;;18.90;99.90;;;;;;5042752;28;20468;-70
2023/07/24 09:00:43;;;;;;;22.23;10.70;;;18.90;99.90;;;;;;5037980;28;20037;-66
2023/07/24 09:03:10;;;;;;;19.58;9.93;;;18.90;99.90;;;;;;5065160;28;20047;-66
2023/07/24 09:05:35;;;;;;;18.77;10.05;;;18.90;99.90;;;;;;5045918;28;20147;-68
2023/07/24 09:08:01;;;;;;;23.88;10.48;;;19.00;99.90;;;;;;5029858;28;20543;-65
2023/07/24 09:10:27;;;;;;;19.38;10.15;;;19.00;99.90;;;;;;5046315;28;20503;-66
2023/07/24 09:12:53;;;;;;;18.45;9.27;;;19.00;99.90;;;;;;5043790;28;20079;-68
2023/07/24 09:15:18;;;;;;;19.10;9.60;;;19.10;99.90;;;;;;5046407;28;20574;-68
2023/07/24 09:17:52;;;;;;;18.45;10.77;;;19.10;99.90;;;;;;5040942;28;20059;-65
2023/07/24 09:20:19;;;;;;;17.52;9.63;;;19.20;99.90;;;;;;5034317;28;20091;-66
2023/07/24 09:22:52;;;;;;;18.30;9.45;;;19.30;99.90;;;;;;5028903;28;20050;-66
2023/07/24 09:25:18;;;;;;;14.80;9.47;;;19.40;99.90;;;;;;5064397;28;20532;-67
2023/07/24 09:27:44;;;;;;;14.93;9.65;;;19.50;99.90;;;;;;5040702;28;20053;-67
2023/07/24 09:30:14;;;;;;;16.85;9.75;;;19.70;99.90;;;;;;5033037;28;20036;-69
2023/07/24 09:32:40;;;;;;;16.52;8.98;;;20.00;99.90;;;;;;5028757;28;20128;-69
2023/07/24 09:35:17;;;;;;;18.75;9.70;;;20.40;99.90;;;;;;5028651;28;20049;-65
2023/07/24 09:37:44;;;;;;;19.02;9.20;;;20.70;99.90;;;;;;5009271;28;20122;-65
2023/07/24 09:40:10;;;;;;;16.20;8.88;;;20.80;99.90;;;;;;5005424;28;20041;-72
2023/07/24 09:42:37;;;;;;;19.02;9.07;;;20.80;99.90;;;;;;5025225;28;20045;-68
2023/07/24 09:45:04;;;;;;;14.27;8.45;;;20.80;99.90;;;;;;5009996;28;20041;-68
2023/07/24 09:47:31;;;;;;;15.95;8.73;;;20.70;99.90;;;;;;5064620;28;20519;-66
2023/07/24 09:49:57;;;;;;;18.42;9.63;;;20.60;99.90;;;;;;5038663;28;20037;-67
2023/07/24 09:52:27;;;;;;;15.40;8.55;;;20.70;99.90;;;;;;5044018;28;20528;-65
2023/07/24 09:55:11;;;;;;;16.00;7.55;;;20.80;99.90;;;;;;5058782;28;20127;-68
2023/07/24 09:57:37;;;;;;;16.38;7.93;;;21.00;99.90;;;;;;5061399;28;20063;-64
2023/07/24 10:00:03;;;;;;;17.13;7.75;;;21.00;99.90;;;;;;5058864;28;20041;-67
2023/07/24 10:02:29;;;;;;;13.68;7.22;;;21.10;99.90;;;;;;5044201;28;20095;-67
2023/07/24 10:04:56;;;;;;;14.82;7.32;;;21.20;99.90;;;;;;5028266;28;20124;-65
2023/07/24 10:07:22;;;;;;;12.63;5.80;;;21.30;99.90;;;;;;5046042;28;20157;-69
2023/07/24 10:09:52;;;;;;;12.60;6.68;;;21.40;99.90;;;;;;5044862;28;20040;-69
2023/07/24 10:12:19;;;;;;;10.88;6.10;;;21.40;99.90;;;;;;5056493;28;20064;-67
2023/07/24 10:14:48;;;;;;;9.93;6.25;;;21.30;99.90;;;;;;5063594;28;20044;-66
2023/07/24 10:17:14;;;;;;;14.82;6.00;;;21.30;99.90;;;;;;5045812;28;20117;-69
2023/07/24 10:19:42;;;;;;;11.25;5.97;;;21.20;99.90;;;;;;5028476;28;20048;-65
2023/07/24 10:22:16;;;;;;;13.48;6.55;;;21.10;99.90;;;;;;5045693;28;20044;-67
2023/07/24 10:24:41;;;;;;;12.50;6.40;;;21.10;99.90;;;;;;5046286;28;20052;-67
2023/07/24 10:27:07;;;;;;;12.77;6.20;;;21.10;99.90;;;;;;5062832;28;20097;-68
2023/07/24 10:29:36;;;;;;;13.50;6.00;;;21.20;99.90;;;;;;5062584;28;20623;-65
2023/07/24 10:32:02;;;;;;;12.70;6.07;;;21.30;99.90;;;;;;5045813;28;20049;-66
2023/07/24 10:34:38;;;;;;;14.20;5.95;;;21.30;99.90;;;;;;5048558;28;20060;-67
2023/07/24 10:37:10;;;;;;;12.77;6.25;;;21.20;99.90;;;;;;5049379;28;20123;-67
2023/07/24 10:39:40;;;;;;;12.25;6.15;;;21.10;99.90;;;;;;5048543;28;21043;-67
2023/07/24 10:42:10;;;;;;;13.63;6.38;;;21.00;99.90;;;;;;5046610;28;20083;-69
2023/07/24 10:44:37;;;;;;;14.52;6.80;;;21.00;99.90;;;;;;5047657;28;20044;-68
2023/07/24 10:47:03;;;;;;;13.15;7.18;;;21.00;99.90;;;;;;5031885;28;20040;-67
2023/07/24 10:49:28;;;;;;;13.90;6.47;;;20.90;99.90;;;;;;5063981;28;20036;-70
2023/07/24 10:51:58;;;;;;;14.55;6.55;;;20.90;99.90;;;;;;5047126;28;20048;-67
2023/07/24 10:54:24;;;;;;;11.60;5.72;;;20.80;99.90;;;;;;5028974;28;20049;-69
2023/07/24 10:56:50;;;;;;;11.45;5.90;;;20.70;99.90;;;;;;5028753;28;20126;-65
2023/07/24 10:59:15;;;;;;;13.63;5.90;;;20.80;99.90;;;;;;5046552;28;20033;-71
2023/07/24 11:01:41;;;;;;;11.48;6.30;;;20.90;99.90;;;;;;5033566;28;20520;-65
2023/07/24 11:04:08;;;;;;;12.07;5.68;;;21.20;99.90;;;;;;5047128;28;20127;-67
2023/07/24 11:06:37;;;;;;;12.38;5.57;;;21.40;99.90;;;;;;5043954;28;20041;-67
2023/07/24 11:09:02;;;;;;;12.55;6.43;;;21.60;99.90;;;;;;5047119;28;20036;-71
2023/07/24 11:11:33;;;;;;;12.18;5.60;;;21.80;99.90;;;;;;5066993;28;20082;-68
2023/07/24 11:14:01;;;;;;;15.75;6.15;;;21.90;99.90;;;;;;5067110;28;20044;-67
2023/07/24 11:16:33;;;;;;;14.45;6.15;;;21.90;99.90;;;;;;5064187;28;20032;-69
2023/07/24 11:18:59;;;;;;;16.20;5.90;;;21.80;99.90;;;;;;5065874;28;20110;-70
2023/07/24 11:21:25;;;;;;;11.52;5.57;;;21.70;99.90;;;;;;5048097;28;20040;-68
2023/07/24 11:23:55;;;;;;;11.30;5.15;;;21.60;99.90;;;;;;5031356;28;20039;-68
2023/07/24 11:26:23;;;;;;;11.65;5.15;;;21.70;99.90;;;;;;5047403;28;20426;-64
2023/07/24 11:28:50;;;;;;;11.85;5.10;;;21.60;99.90;;;;;;5029317;28;20427;-69
2023/07/24 11:31:15;;;;;;;9.18;5.32;;;21.50;99.90;;;;;;5061818;28;20454;-64
2023/07/24 11:33:42;;;;;;;12.73;5.47;;;21.50;99.90;;;;;;5065276;28;20069;-70
2023/07/24 11:36:09;;;;;;;12.70;5.75;;;21.50;99.90;;;;;;5046272;28;20076;-67
2023/07/24 11:38:37;;;;;;;18.10;6.35;;;21.40;99.90;;;;;;5044346;28;20383;-68
2023/07/24 11:41:03;;;;;;;14.13;5.35;;;21.40;99.90;;;;;;5044225;28;20087;-67
2023/07/24 11:43:29;;;;;;;12.38;5.30;;;21.30;99.90;;;;;;5046024;28;20032;-64
2023/07/24 11:45:55;;;;;;;10.75;5.38;;;21.30;99.90;;;;;;5044337;28;20083;-66
2023/07/24 11:48:24;;;;;;;11.82;4.72;;;21.30;99.90;;;;;;5046069;28;20044;-66
2023/07/24 11:50:53;;;;;;;11.23;5.05;;;21.30;99.90;;;;;;5059131;28;20147;-69
2023/07/24 11:53:26;;;;;;;11.35;5.07;;;21.20;99.90;;;;;;5030413;28;20132;-69
2023/07/24 11:55:54;;;;;;;12.77;5.82;;;21.30;99.90;;;;;;5042550;28;20045;-65
2023/07/24 11:58:21;;;;;;;14.18;5.50;;;21.30;99.90;;;;;;5030255;28;20098;-67
2023/07/24 12:00:48;;;;;;;15.23;5.68;;;21.30;99.90;;;;;;5045077;28;20032;-71
2023/07/24 12:03:34;;;;;;;11.60;5.43;;;21.30;99.90;;;;;;5046621;28;20105;-67
2023/07/24 12:06:00;;;;;;;12.98;5.53;;;21.40;99.90;;;;;;5046139;28;20052;-66
2023/07/24 12:08:35;;;;;;;13.05;5.40;;;21.40;99.90;;;;;;5064891;28;20051;-71
2023/07/24 12:11:02;;;;;;;10.57;5.50;;;21.40;99.90;;;;;;5028151;28;20040;-72
2023/07/24 12:13:28;;;;;;;12.32;5.57;;;21.30;99.90;;;;;;5065019;28;20499;-67
2023/07/24 12:15:54;;;;;;;14.15;6.35;;;21.20;99.90;;;;;;5060279;28;20080;-68
2023/07/24 12:18:19;;;;;;;12.60;5.80;;;21.20;99.90;;;;;;5027001;28;20095;-63
2023/07/24 12:20:45;;;;;;;10.10;5.60;;;21.20;99.90;;;;;;5040233;28;20573;-69
2023/07/24 12:23:10;;;;;;;10.68;6.38;;;21.20;99.90;;;;;;5047315;28;20102;-69
2023/07/24 12:25:36;;;;;;;14.25;7.03;;;21.30;99.90;;;;;;5046381;28;20076;-66
2023/07/24 12:28:02;;;;;;;11.27;6.03;;;21.30;99.90;;;;;;5064237;28;20080;-69